Time;durP1;ratioP1;P1;durP2;ratioP2;P2;SDS_P1;SDS_P2;PMS_P1;PMS_P2;Temp;Humidity;BMP_temperature;BMP_pressure;BME280_temperature;BME280_humidity;BME280_pressure;Samples;Min_cycle;Max_cycle;Signal;HPM_P1;HPM_P2
2023/04/21 00:01:58;;;;;;;8.40;1.80;;;;;;;17.06;46.52;99137.36;104387;1256;68933;-64
2023/04/21 00:04:27;;;;;;;7.10;1.80;;;;;;;17.07;46.61;99137.80;104402;1259;72575;-63
2023/04/21 00:06:56;;;;;;;5.50;1.90;;;;;;;17.02;46.65;99134.48;104604;1262;61259;-64
2023/04/21 00:09:24;;;;;;;7.20;2.00;;;;;;;17.02;46.50;99137.33;104347;1254;59706;-63
2023/04/21 00:11:53;;;;;;;5.90;1.90;;;;;;;17.04;46.32;99136.05;104440;1267;73687;-64
2023/04/21 00:14:22;;;;;;;7.90;1.90;;;;;;;17.05;46.31;99132.62;104453;1259;68512;-65
2023/04/21 00:16:51;;;;;;;10.80;2.80;;;;;;;17.06;46.22;99128.26;104343;1259;71605;-65
2023/04/21 00:19:19;;;;;;;4.60;1.70;;;;;;;17.10;45.98;99126.56;104278;1259;60929;-64
2023/04/21 00:21:48;;;;;;;6.30;1.90;;;;;;;17.09;46.01;99127.17;104385;1260;60373;-64
2023/04/21 00:24:16;;;;;;;4.20;2.00;;;;;;;17.09;46.01;99127.20;104575;1254;73200;-64
2023/04/21 00:26:45;;;;;;;12.60;1.80;;;;;;;17.08;46.03;99128.27;104964;1262;68630;-64
2023/04/21 00:29:13;;;;;;;8.10;1.60;;;;;;;17.09;46.13;99126.45;104460;1259;71981;-64
2023/04/21 00:31:41;;;;;;;5.70;1.90;;;;;;;17.07;46.04;99129.79;104380;1253;60600;-63
2023/04/21 00:34:10;;;;;;;3.80;1.50;;;;;;;17.06;46.15;99129.14;104466;1256;60588;-64
2023/04/21 00:36:38;;;;;;;5.90;1.90;;;;;;;17.10;46.26;99121.64;104842;1257;73135;-64
2023/04/21 00:39:07;;;;;;;5.20;2.00;;;;;;;17.08;46.18;99122.46;105126;1253;68449;-64
2023/04/21 00:41:35;;;;;;;2.90;1.60;;;;;;;17.06;46.25;99120.80;104521;1266;72278;-64
2023/04/21 00:44:05;;;;;;;5.70;1.60;;;;;;;17.04;46.27;99122.80;105070;1253;61853;-64
2023/04/21 00:46:34;;;;;;;6.50;2.10;;;;;;;17.03;46.40;99123.39;104416;1259;60551;-64
2023/04/21 00:49:05;;;;;;;5.70;1.70;;;;;;;17.05;46.38;99124.83;104360;1262;74016;-64
2023/04/21 00:51:34;;;;;;;5.00;2.00;;;;;;;17.14;46.20;99126.05;104425;1267;70495;-64
2023/04/21 00:54:04;;;;;;;5.70;1.80;;;;;;;17.16;46.10;99123.65;104392;1257;72093;-64
2023/04/21 00:56:34;;;;;;;6.20;1.50;;;;;;;17.13;46.22;99120.67;104467;1255;60586;-64
2023/04/21 00:59:03;;;;;;;9.40;2.00;;;;;;;17.12;46.01;99121.77;104455;1259;60444;-64
2023/04/21 01:01:33;;;;;;;7.00;2.10;;;;;;;17.10;46.00;99115.92;104452;1263;74280;-63
2023/04/21 01:04:02;;;;;;;7.40;1.60;;;;;;;17.08;46.12;99117.17;104391;1263;70790;-64
2023/04/21 01:06:31;;;;;;;6.20;1.90;;;;;;;17.10;46.27;99115.95;104491;1259;73114;-66
2023/04/21 01:09:00;;;;;;;7.00;2.30;;;;;;;17.10;46.20;99120.00;104321;1259;61153;-63
2023/04/21 01:11:28;;;;;;;8.90;1.90;;;;;;;17.03;46.16;99116.11;104497;1254;60549;-64
2023/04/21 01:13:57;;;;;;;9.00;2.00;;;;;;;17.06;46.15;99116.81;104533;1256;74027;-63
2023/04/21 01:16:25;;;;;;;5.10;1.70;;;;;;;17.06;46.11;99118.19;104337;1259;69700;-63
2023/04/21 01:18:54;;;;;;;4.80;1.50;;;;;;;16.99;46.23;99119.99;104403;1254;71791;-65
2023/04/21 01:21:22;;;;;;;9.50;2.00;;;;;;;16.94;46.39;99120.91;104366;1272;60522;-64
2023/04/21 01:23:50;;;;;;;6.80;2.40;;;;;;;16.98;46.49;99115.66;104386;1260;60555;-63
2023/04/21 01:26:20;;;;;;;4.80;1.80;;;;;;;17.04;46.28;99112.68;104273;1259;74334;-65
2023/04/21 01:28:48;;;;;;;5.10;1.90;;;;;;;17.09;46.30;99112.13;104539;1274;69637;-64
2023/04/21 01:31:17;;;;;;;10.40;1.70;;;;;;;17.08;46.44;99107.77;104471;1254;72174;-63
2023/04/21 01:33:45;;;;;;;5.30;1.70;;;;;;;17.07;46.41;99112.65;104336;1272;60969;-64
2023/04/21 01:36:13;;;;;;;11.90;2.10;;;;;;;17.07;46.27;99109.48;104466;1257;60176;-63
2023/04/21 01:38:42;;;;;;;4.50;1.70;;;;;;;16.99;46.23;99106.19;104383;1260;74497;-63
2023/04/21 01:41:10;;;;;;;7.10;2.10;;;;;;;16.96;46.51;99105.72;104310;1269;70152;-64
2023/04/21 01:43:39;;;;;;;5.20;1.80;;;;;;;16.94;46.58;99102.49;104498;1270;71620;-63
2023/04/21 01:46:07;;;;;;;7.60;1.80;;;;;;;16.89;46.65;99101.47;104385;1254;61470;-63
2023/04/21 01:48:38;;;;;;;7.60;2.00;;;;;;;16.89;46.59;99100.94;104476;1258;60478;-63
2023/04/21 01:51:06;;;;;;;6.50;2.00;;;;;;;16.85;46.40;99100.16;104707;1259;72802;-63
2023/04/21 01:53:35;;;;;;;8.20;2.30;;;;;;;16.79;46.54;99101.48;104506;1253;69200;-64
2023/04/21 01:56:03;;;;;;;6.00;1.70;;;;;;;16.78;46.66;99099.13;104373;1258;72085;-63
2023/04/21 01:58:32;;;;;;;4.70;1.80;;;;;;;16.77;46.80;99100.27;104503;1258;60443;-63
2023/04/21 02:01:00;;;;;;;7.30;2.00;;;;;;;16.77;46.67;99096.73;104373;1259;60578;-63
2023/04/21 02:03:29;;;;;;;5.60;1.80;;;;;;;16.78;46.60;99093.48;104408;1258;74195;-64
2023/04/21 02:05:58;;;;;;;7.40;2.10;;;;;;;16.77;46.72;99090.56;104276;1264;69782;-63
2023/04/21 02:08:26;;;;;;;6.60;2.20;;;;;;;16.77;46.72;99090.66;104412;1259;71778;-64
2023/04/21 02:10:55;;;;;;;8.90;2.00;;;;;;;16.83;46.93;99085.44;104451;1265;61274;-64
2023/04/21 02:13:23;;;;;;;8.20;2.40;;;;;;;16.87;46.71;99075.10;104520;1253;60597;-63
2023/04/21 02:15:52;;;;;;;5.60;1.60;;;;;;;16.92;46.75;99078.56;104279;1266;73192;-63
2023/04/21 02:18:38;;;;;;;13.20;2.10;;;;;;;16.98;46.72;99078.98;104351;1272;69714;-64
2023/04/21 02:21:07;;;;;;;7.60;2.10;;;;;;;17.01;46.43;99077.55;104445;1269;71752;-62
2023/04/21 02:23:35;;;;;;;5.70;2.40;;;;;;;16.98;46.30;99076.49;104368;1253;61223;-64
2023/04/21 02:26:04;;;;;;;9.90;1.80;;;;;;;16.99;46.60;99073.41;104338;1254;60594;-62
2023/04/21 02:28:32;;;;;;;10.10;1.90;;;;;;;17.01;46.29;99074.20;104607;1259;73876;-63
2023/04/21 02:31:01;;;;;;;7.20;1.70;;;;;;;16.99;46.48;99072.77;104607;1253;68782;-63
2023/04/21 02:33:30;;;;;;;6.90;1.90;;;;;;;17.02;46.35;99074.24;107964;1253;71767;-64
2023/04/21 02:35:58;;;;;;;4.60;1.50;;;;;;;17.02;46.76;99074.60;107947;1256;62216;-64
2023/04/21 02:38:27;;;;;;;4.60;1.70;;;;;;;17.04;46.70;99079.73;108243;1253;61486;-64
2023/04/21 02:40:56;;;;;;;7.90;1.60;;;;;;;17.05;46.71;99075.84;104875;1256;74605;-64
2023/04/21 02:43:25;;;;;;;4.20;1.50;;;;;;;17.08;46.61;99077.34;104383;1253;69686;-63
2023/04/21 02:45:55;;;;;;;7.70;2.40;;;;;;;17.08;46.65;99076.81;104382;1258;72657;-64
2023/04/21 02:48:24;;;;;;;7.10;1.80;;;;;;;17.09;46.60;99074.59;104795;1259;61005;-64
2023/04/21 02:50:53;;;;;;;7.70;2.30;;;;;;;17.10;46.43;99075.58;104700;1258;60620;-63
2023/04/21 02:53:21;;;;;;;4.50;1.60;;;;;;;17.08;46.36;99075.02;104476;1254;73794;-64
2023/04/21 02:55:51;;;;;;;9.30;1.90;;;;;;;17.09;46.31;99066.11;104591;1260;71282;-62
2023/04/21 02:58:19;;;;;;;11.60;2.20;;;;;;;17.08;46.40;99066.89;104322;1259;71568;-64
2023/04/21 03:00:48;;;;;;;8.90;2.00;;;;;;;17.05;46.48;99063.91;104268;1254;60562;-64
2023/04/21 03:03:16;;;;;;;6.40;1.80;;;;;;;17.08;46.53;99061.35;104344;1258;61411;-63
2023/04/21 03:05:45;;;;;;;6.80;1.40;;;;;;;17.09;46.45;99059.69;104556;1259;73097;-64
2023/04/21 03:08:13;;;;;;;6.10;1.30;;;;;;;17.08;46.56;99061.38;104314;1259;69913;-63
2023/04/21 03:10:42;;;;;;;5.20;1.40;;;;;;;17.10;46.38;99058.94;104634;1263;71914;-64
2023/04/21 03:13:10;;;;;;;7.30;1.70;;;;;;;17.01;46.46;99060.51;104363;1259;61642;-66
2023/04/21 03:15:39;;;;;;;3.60;1.50;;;;;;;16.99;46.52;99058.61;104550;1259;60543;-66
2023/04/21 03:18:08;;;;;;;4.80;1.60;;;;;;;16.97;46.56;99060.17;104547;1253;73928;-66
2023/04/21 03:20:36;;;;;;;7.40;1.90;;;;;;;16.99;46.66;99062.65;107814;1253;68653;-67
2023/04/21 03:23:04;;;;;;;8.80;1.50;;;;;;;16.99;46.62;99060.55;107033;1253;71887;-65
2023/04/21 03:25:33;;;;;;;6.90;1.40;;;;;;;17.00;46.91;99065.23;104643;1254;60631;-65
2023/04/21 03:28:02;;;;;;;4.70;1.30;;;;;;;17.09;46.81;99066.45;104355;1259;60569;-65
2023/04/21 03:30:31;;;;;;;4.30;1.60;;;;;;;17.16;46.67;99067.13;104371;1259;72938;-65
2023/04/21 03:33:00;;;;;;;4.60;1.30;;;;;;;17.21;46.39;99066.73;104755;1264;70108;-65
2023/04/21 03:35:29;;;;;;;7.80;1.40;;;;;;;17.25;46.51;99069.63;104310;1277;72471;-65
2023/04/21 03:37:58;;;;;;;5.40;1.60;;;;;;;17.30;46.40;99068.48;104379;1265;60700;-65
2023/04/21 03:40:30;;;;;;;6.20;1.70;;;;;;;17.34;46.26;99065.54;104414;1259;60596;-64
2023/04/21 03:42:59;;;;;;;4.70;1.70;;;;;;;17.39;46.27;99067.05;104339;1253;73834;-64
2023/04/21 03:45:27;;;;;;;5.20;1.40;;;;;;;17.42;46.03;99066.48;104323;1273;68682;-64
2023/04/21 03:47:59;;;;;;;8.10;1.80;;;;;;;17.45;46.01;99065.17;104347;1260;72944;-64
2023/04/21 03:50:27;;;;;;;6.70;1.60;;;;;;;17.49;45.92;99062.88;104403;1259;61420;-64
2023/04/21 03:52:56;;;;;;;3.80;1.60;;;;;;;17.46;46.32;99062.75;104347;1266;60569;-64
2023/04/21 03:55:25;;;;;;;4.10;1.40;;;;;;;17.49;46.22;99057.61;104526;1259;74227;-66
2023/04/21 03:57:53;;;;;;;5.40;1.80;;;;;;;17.49;46.28;99055.80;104431;1254;68866;-65
2023/04/21 04:00:21;;;;;;;10.60;2.10;;;;;;;17.51;46.30;99053.69;104927;1253;71522;-64
2023/04/21 04:02:49;;;;;;;7.10;1.70;;;;;;;17.55;46.15;99052.89;104495;1259;60812;-65
2023/04/21 04:05:18;;;;;;;6.30;2.00;;;;;;;17.56;46.27;99052.80;104611;1259;60442;-64
2023/04/21 04:07:47;;;;;;;10.80;2.00;;;;;;;17.56;46.22;99050.99;104362;1264;72995;-63
2023/04/21 04:10:15;;;;;;;8.90;2.60;;;;;;;17.57;46.46;99046.36;104538;1258;69584;-63
2023/04/21 04:12:43;;;;;;;8.40;2.30;;;;;;;17.64;46.42;99044.71;104301;1266;71925;-63
2023/04/21 04:15:12;;;;;;;7.80;1.90;;;;;;;17.63;46.31;99046.52;104555;1258;60708;-64
2023/04/21 04:17:40;;;;;;;7.00;2.40;;;;;;;17.64;46.25;99046.12;104323;1266;60480;-64
2023/04/21 04:20:09;;;;;;;7.40;1.60;;;;;;;17.64;46.55;99042.54;104577;1253;73864;-64
2023/04/21 04:22:38;;;;;;;6.70;2.00;;;;;;;17.74;46.34;99046.94;104391;1258;70547;-62
2023/04/21 04:25:06;;;;;;;7.00;2.10;;;;;;;17.77;46.04;99045.59;104343;1259;72894;-64
2023/04/21 04:27:35;;;;;;;7.20;2.10;;;;;;;17.79;46.21;99044.52;104309;1259;61063;-62
2023/04/21 04:30:04;;;;;;;5.50;2.10;;;;;;;17.81;46.28;99048.83;104619;1259;60562;-63
2023/04/21 04:32:33;;;;;;;4.80;2.10;;;;;;;17.91;46.45;99054.38;104530;1259;73135;-64
2023/04/21 04:35:01;;;;;;;7.10;2.00;;;;;;;17.99;46.39;99053.55;104435;1260;71037;-65
2023/04/21 04:37:30;;;;;;;5.40;2.20;;;;;;;18.00;46.34;99051.69;104310;1270;71920;-65
2023/04/21 04:39:59;;;;;;;7.10;2.40;;;;;;;18.07;45.95;99051.11;104556;1259;61112;-63
2023/04/21 04:42:27;;;;;;;8.20;2.40;;;;;;;18.11;45.76;99055.21;104930;1259;60582;-62
2023/04/21 04:44:56;;;;;;;6.10;2.60;;;;;;;18.07;45.99;99058.38;104362;1254;73127;-62
2023/04/21 04:47:24;;;;;;;6.50;3.00;;;;;;;18.07;46.11;99058.71;104567;1259;69682;-64
2023/04/21 04:49:52;;;;;;;8.50;3.00;;;;;;;18.12;46.19;99060.10;104293;1275;72001;-64
2023/04/21 04:52:21;;;;;;;8.30;3.20;;;;;;;18.17;46.31;99059.48;104572;1257;61209;-67
2023/04/21 04:54:49;;;;;;;7.10;2.60;;;;;;;18.24;46.40;99061.75;104270;1260;60569;-67
2023/04/21 04:57:18;;;;;;;13.20;3.10;;;;;;;18.29;46.47;99058.69;104412;1259;74110;-67
2023/04/21 04:59:46;;;;;;;6.90;2.90;;;;;;;18.28;46.08;99063.72;104421;1259;68939;-65
2023/04/21 05:02:15;;;;;;;8.20;2.80;;;;;;;18.32;46.20;99061.83;104265;1270;71603;-64
2023/04/21 05:04:43;;;;;;;6.70;3.10;;;;;;;18.37;46.40;99063.86;104375;1259;61076;-66
2023/04/21 05:07:12;;;;;;;11.40;3.60;;;;;;;18.43;45.93;99062.30;104347;1266;60076;-62
2023/04/21 05:09:40;;;;;;;9.50;2.70;;;;;;;18.52;45.99;99063.45;104305;1260;73278;-64
2023/04/21 05:12:09;;;;;;;10.30;2.80;;;;;;;18.66;45.63;99065.12;104277;1266;69572;-65
2023/04/21 05:14:38;;;;;;;7.80;2.30;;;;;;;18.75;44.85;99064.24;104430;1259;72246;-64
2023/04/21 05:17:06;;;;;;;7.10;2.30;;;;;;;18.82;44.81;99065.22;104443;1253;61936;-65
2023/04/21 05:19:36;;;;;;;7.80;2.40;;;;;;;18.88;44.91;99064.73;104416;1254;60553;-65
2023/04/21 05:22:07;;;;;;;11.60;3.00;;;;;;;18.90;44.49;99068.95;104401;1260;73425;-68
2023/04/21 05:24:36;;;;;;;9.20;2.80;;;;;;;18.91;44.30;99068.01;104418;1266;68398;-68
2023/04/21 05:27:04;;;;;;;10.60;2.90;;;;;;;18.90;44.50;99067.60;104362;1270;71821;-68
2023/04/21 05:29:33;;;;;;;5.90;2.30;;;;;;;18.94;44.11;99071.27;104708;1259;62619;-64
2023/04/21 05:32:01;;;;;;;8.60;2.40;;;;;;;19.11;43.77;99063.04;104431;1258;60226;-65
2023/04/21 05:34:30;;;;;;;12.30;2.80;;;;;;;19.09;43.66;99068.64;104357;1260;72493;-66
2023/04/21 05:36:58;;;;;;;5.10;1.90;;;;;;;18.93;44.05;99069.61;104356;1269;68862;-64
2023/04/21 05:39:27;;;;;;;7.20;2.00;;;;;;;18.88;43.88;99067.73;104429;1254;72261;-67
2023/04/21 05:41:55;;;;;;;6.60;1.80;;;;;;;18.91;43.74;99064.16;104282;1255;60594;-65
2023/04/21 05:44:24;;;;;;;10.50;2.10;;;;;;;18.94;43.39;99067.09;104453;1255;60559;-66
2023/04/21 05:46:52;;;;;;;7.20;2.60;;;;;;;18.98;43.34;99059.59;104550;1257;73376;-65
2023/04/21 05:49:21;;;;;;;6.80;1.90;;;;;;;19.03;43.25;99063.73;104398;1271;69557;-65
2023/04/21 05:51:49;;;;;;;4.50;1.50;;;;;;;19.06;42.63;99065.32;104342;1259;71902;-64
2023/04/21 05:54:18;;;;;;;7.30;1.90;;;;;;;19.12;42.40;99064.95;104361;1256;61178;-64
2023/04/21 05:56:47;;;;;;;4.60;1.90;;;;;;;19.19;42.71;99066.65;104448;1258;59933;-61
2023/04/21 05:59:15;;;;;;;7.00;2.50;;;;;;;19.28;42.14;99069.77;104475;1260;74094;-63
2023/04/21 06:01:44;;;;;;;5.50;1.50;;;;;;;19.39;42.10;99064.89;104343;1259;71044;-62
2023/04/21 06:04:13;;;;;;;9.00;1.90;;;;;;;19.46;41.73;99064.98;104248;1256;72065;-63
2023/04/21 06:06:43;;;;;;;6.20;1.80;;;;;;;19.50;42.18;99068.55;104333;1273;61294;-64
2023/04/21 06:09:14;;;;;;;16.00;2.00;;;;;;;19.55;42.00;99065.44;104269;1269;60383;-65
2023/04/21 06:11:42;;;;;;;8.50;2.10;;;;;;;19.56;42.24;99067.47;104268;1263;73590;-63
2023/04/21 06:14:11;;;;;;;6.80;1.80;;;;;;;19.66;41.81;99064.48;104419;1259;70022;-63
2023/04/21 06:16:39;;;;;;;5.50;1.80;;;;;;;19.68;41.01;99065.64;104522;1259;72004;-63
2023/04/21 06:19:08;;;;;;;7.70;1.70;;;;;;;19.76;41.73;99065.69;104303;1264;61414;-63
2023/04/21 06:21:36;;;;;;;8.60;2.10;;;;;;;19.75;41.90;99063.65;104335;1260;61643;-63
2023/04/21 06:24:05;;;;;;;9.00;2.00;;;;;;;19.80;41.57;99061.95;104390;1259;73844;-65
2023/04/21 06:26:34;;;;;;;13.20;2.20;;;;;;;19.95;41.20;99062.02;104424;1259;68738;-64
2023/04/21 06:29:03;;;;;;;9.50;1.70;;;;;;;20.00;41.26;99063.17;104402;1255;72843;-66
2023/04/21 06:31:31;;;;;;;8.40;1.70;;;;;;;20.14;41.12;99062.81;104364;1266;60873;-64
2023/04/21 06:33:59;;;;;;;9.60;2.00;;;;;;;20.22;41.50;99064.70;104415;1259;60504;-64
2023/04/21 06:36:28;;;;;;;6.80;2.00;;;;;;;20.35;41.17;99061.90;104408;1257;73611;-64
2023/04/21 06:38:57;;;;;;;12.10;2.20;;;;;;;20.40;40.85;99059.73;104441;1259;69608;-63
2023/04/21 06:41:25;;;;;;;4.80;2.00;;;;;;;20.43;40.75;99058.38;104333;1270;72393;-63
2023/04/21 06:43:54;;;;;;;11.00;2.10;;;;;;;20.46;40.51;99056.31;104529;1261;60591;-63
2023/04/21 06:46:22;;;;;;;5.50;2.20;;;;;;;20.47;40.04;99058.31;104318;1273;60559;-62
2023/04/21 06:48:51;;;;;;;9.30;1.90;;;;;;;20.52;39.96;99056.26;104394;1259;72760;-64
2023/04/21 06:51:19;;;;;;;9.20;1.80;;;;;;;20.50;40.01;99054.48;104496;1260;68784;-63
2023/04/21 06:53:47;;;;;;;13.20;2.50;;;;;;;20.52;39.71;99056.64;104539;1258;71984;-63
2023/04/21 06:56:16;;;;;;;8.10;2.00;;;;;;;20.51;39.25;99056.34;104679;1254;60600;-63
2023/04/21 06:58:45;;;;;;;8.10;2.00;;;;;;;20.62;39.43;99056.62;104825;1260;60546;-64
2023/04/21 07:01:14;;;;;;;5.50;1.90;;;;;;;20.66;39.41;99060.52;104463;1269;73039;-62
2023/04/21 07:03:42;;;;;;;8.20;1.60;;;;;;;20.71;39.20;99057.34;104476;1258;69166;-63
2023/04/21 07:06:11;;;;;;;10.70;1.90;;;;;;;20.74;38.90;99053.31;104419;1258;72931;-63
2023/04/21 07:08:40;;;;;;;10.90;2.30;;;;;;;20.72;39.25;99044.67;104409;1261;60574;-65
2023/04/21 07:11:08;;;;;;;6.90;1.70;;;;;;;20.70;38.92;99047.73;104309;1270;60572;-65
2023/04/21 07:13:37;;;;;;;8.60;1.90;;;;;;;20.66;38.77;99051.41;104322;1259;72912;-64
2023/04/21 07:16:05;;;;;;;15.30;2.30;;;;;;;20.69;38.72;99053.27;104348;1254;68621;-62
2023/04/21 07:18:34;;;;;;;10.10;2.20;;;;;;;20.77;38.69;99050.38;104339;1257;72022;-61
2023/04/21 07:21:03;;;;;;;10.40;2.40;;;;;;;20.77;38.46;99055.21;104353;1260;60593;-62
2023/04/21 07:23:32;;;;;;;8.00;2.20;;;;;;;20.86;38.82;99047.95;104439;1257;60588;-62
2023/04/21 07:26:00;;;;;;;7.30;2.00;;;;;;;21.05;38.82;99047.04;104512;1263;74476;-65
2023/04/21 07:28:29;;;;;;;6.50;2.10;;;;;;;21.16;38.54;99052.55;104255;1266;69581;-62
2023/04/21 07:30:57;;;;;;;5.90;1.80;;;;;;;21.32;38.23;99060.10;104686;1254;72665;-62
2023/04/21 07:33:29;;;;;;;7.50;2.30;;;;;;;21.42;38.19;99057.20;104317;1254;60710;-63
2023/04/21 07:35:57;;;;;;;12.10;2.20;;;;;;;21.37;37.94;99058.58;104453;1254;60976;-63
2023/04/21 07:38:26;;;;;;;12.80;2.30;;;;;;;21.39;38.16;99062.80;104306;1267;74165;-62
2023/04/21 07:40:55;;;;;;;6.40;1.90;;;;;;;21.45;38.21;99067.08;104379;1270;69758;-62
2023/04/21 07:43:25;;;;;;;7.80;2.30;;;;;;;21.46;37.66;99061.45;104342;1269;72201;-62
2023/04/21 07:45:53;;;;;;;9.50;2.20;;;;;;;21.42;37.71;99062.02;104479;1257;60792;-62
2023/04/21 07:48:22;;;;;;;14.40;2.40;;;;;;;21.37;37.36;99057.46;104343;1258;60545;-61
2023/04/21 07:50:52;;;;;;;5.30;1.70;;;;;;;21.45;37.53;99062.29;104417;1259;73388;-63
2023/04/21 07:53:20;;;;;;;5.20;1.60;;;;;;;21.52;37.73;99064.95;104330;1266;68908;-62
2023/04/21 07:55:48;;;;;;;8.80;2.00;;;;;;;21.53;37.22;99063.63;104411;1259;72235;-62
2023/04/21 07:58:16;;;;;;;14.00;2.00;;;;;;;21.49;37.61;99061.52;104353;1260;60586;-62
2023/04/21 08:00:45;;;;;;;5.20;1.70;;;;;;;21.46;37.10;99060.80;104274;1260;60473;-62
2023/04/21 08:03:13;;;;;;;12.10;1.80;;;;;;;21.38;36.64;99059.73;104434;1259;74258;-62
2023/04/21 08:05:42;;;;;;;5.50;1.80;;;;;;;21.41;36.39;99059.79;104331;1275;69494;-62
2023/04/21 08:08:11;;;;;;;6.10;1.90;;;;;;;21.49;36.95;99065.79;104357;1259;72158;-63
2023/04/21 08:10:39;;;;;;;8.60;1.80;;;;;;;21.58;36.99;99061.86;104412;1267;60569;-61
2023/04/21 08:13:09;;;;;;;8.30;2.10;;;;;;;21.54;36.76;99064.98;104318;1258;60502;-64
2023/04/21 08:15:38;;;;;;;9.90;2.10;;;;;;;21.54;36.91;99061.91;104332;1254;73273;-61
2023/04/21 08:18:07;;;;;;;10.10;1.90;;;;;;;21.54;36.92;99060.17;104350;1259;68958;-62
2023/04/21 08:20:35;;;;;;;6.80;1.50;;;;;;;21.50;36.59;99062.46;104254;1260;72262;-61
2023/04/21 08:23:04;;;;;;;9.60;2.60;;;;;;;21.57;36.47;99063.30;104298;1273;61138;-60
2023/04/21 08:25:33;;;;;;;9.50;2.10;;;;;;;21.65;36.65;99067.34;104221;1275;60543;-61
2023/04/21 08:28:02;;;;;;;10.20;2.00;;;;;;;21.70;36.55;99068.53;104427;1259;74597;-62
2023/04/21 08:30:30;;;;;;;9.80;2.30;;;;;;;21.68;36.29;99068.61;104204;1277;69526;-62
2023/04/21 08:32:58;;;;;;;6.40;1.50;;;;;;;21.72;36.33;99072.97;104318;1260;72221;-61
2023/04/21 08:37:18;;;;;;;5.80;2.10;;;;;;;20.81;38.99;99075.90;101373;1295;601528;-63
2023/04/21 08:39:49;;;;;;;5.50;1.90;;;;;;;21.84;36.75;99074.69;103926;1276;60521;-62
2023/04/21 08:42:18;;;;;;;7.80;2.00;;;;;;;21.96;36.73;99076.41;103978;1271;60460;-60
2023/04/21 08:44:46;;;;;;;9.80;2.00;;;;;;;22.03;36.52;99076.69;103798;1275;71699;-63
2023/04/21 08:47:15;;;;;;;6.00;1.40;;;;;;;22.10;36.63;99079.36;103826;1266;68466;-63
2023/04/21 08:49:44;;;;;;;4.10;1.70;;;;;;;22.17;36.50;99078.56;103894;1269;72619;-65
2023/04/21 08:52:13;;;;;;;4.70;1.80;;;;;;;22.24;36.52;99079.44;104001;1267;60364;-65
2023/04/21 08:54:41;;;;;;;5.40;1.30;;;;;;;22.25;36.15;99083.64;104166;1262;61605;-65
2023/04/21 08:57:10;;;;;;;8.40;2.30;;;;;;;22.32;36.44;99080.66;104277;1260;71990;-64
2023/04/21 08:59:43;;;;;;;4.50;1.60;;;;;;;22.42;36.28;99080.77;104213;1256;69497;-64
2023/04/21 09:02:16;;;;;;;7.70;1.60;;;;;;;22.54;36.44;99073.77;105198;1256;73859;-64
2023/04/21 09:04:47;;;;;;;6.70;1.70;;;;;;;22.60;36.28;99076.02;104196;1264;59935;-63
2023/04/21 09:07:35;;;;;;;5.10;1.70;;;;;;;22.60;36.19;99078.16;104612;1259;60238;-64
2023/04/21 09:10:04;;;;;;;12.90;2.10;;;;;;;22.66;36.49;99077.40;104236;1257;73135;-63
2023/04/21 09:12:33;;;;;;;11.80;2.50;;;;;;;22.55;35.95;99078.56;104313;1259;69856;-62
2023/04/21 09:15:09;;;;;;;7.00;1.50;;;;;;;22.61;36.08;99076.25;104589;1256;72877;-65
2023/04/21 09:17:37;;;;;;;9.00;1.90;;;;;;;22.73;36.17;99078.68;104248;1261;59691;-67
2023/04/21 09:20:15;;;;;;;6.40;2.10;;;;;;;22.69;35.94;99077.23;104252;1257;62022;-64
2023/04/21 09:22:45;;;;;;;10.20;2.00;;;;;;;22.67;36.05;99080.55;104238;1256;73458;-63
2023/04/21 09:25:15;;;;;;;7.00;1.70;;;;;;;22.65;35.94;99081.62;104312;1257;69650;-63
2023/04/21 09:27:44;;;;;;;6.40;1.60;;;;;;;22.67;36.02;99081.40;104400;1257;73280;-63
2023/04/21 09:30:17;;;;;;;5.60;1.80;;;;;;;22.63;35.92;99083.10;104547;1259;59765;-62
2023/04/21 09:32:45;;;;;;;7.70;2.10;;;;;;;22.61;36.12;99087.58;104489;1256;60491;-63
2023/04/21 09:35:13;;;;;;;5.60;2.40;;;;;;;22.53;36.10;99086.05;104163;1256;73498;-63
2023/04/21 09:37:43;;;;;;;5.40;1.50;;;;;;;22.51;36.15;99085.73;104209;1256;69972;-62
2023/04/21 09:40:16;;;;;;;3.30;1.30;;;;;;;22.59;36.12;99094.53;104620;1256;73802;-64
2023/04/21 09:42:49;;;;;;;4.90;1.50;;;;;;;22.63;36.24;99095.16;104160;1264;59759;-67
2023/04/21 09:45:18;;;;;;;5.20;1.40;;;;;;;22.77;36.08;99096.69;104170;1257;60403;-63
2023/04/21 09:47:54;;;;;;;6.80;1.40;;;;;;;22.82;36.19;99103.93;104242;1261;73346;-64
2023/04/21 09:50:23;;;;;;;4.60;1.70;;;;;;;22.82;36.23;99103.63;104197;1256;69789;-65
2023/04/21 09:53:14;;;;;;;6.80;1.40;;;;;;;22.83;36.38;99111.55;104379;1259;71946;-65
2023/04/21 09:55:42;;;;;;;4.40;1.40;;;;;;;22.71;36.47;99112.83;104324;1259;60022;-63
2023/04/21 09:58:10;;;;;;;3.10;1.50;;;;;;;22.52;36.71;99111.45;103989;1257;60069;-63
2023/04/21 10:00:39;;;;;;;5.80;1.80;;;;;;;22.56;36.83;99109.81;104364;1261;72694;-63
2023/04/21 10:03:10;;;;;;;6.60;1.90;;;;;;;22.53;36.68;99107.98;104369;1266;71047;-63
2023/04/21 10:05:39;;;;;;;8.20;1.40;;;;;;;22.50;37.21;99113.85;104158;1263;72120;-64
2023/04/21 10:08:10;;;;;;;4.00;1.40;;;;;;;22.57;36.73;99107.44;104303;1259;60675;-63
2023/04/21 10:10:39;;;;;;;4.90;1.50;;;;;;;22.36;36.51;99109.71;104454;1270;60769;-65
2023/04/21 10:13:13;;;;;;;7.50;1.50;;;;;;;22.20;36.59;99110.72;104236;1257;72663;-62
2023/04/21 10:15:42;;;;;;;6.10;1.30;;;;;;;22.08;36.63;99107.59;104371;1256;70605;-63
2023/04/21 10:18:18;;;;;;;5.20;1.40;;;;;;;22.14;36.57;99111.99;104456;1256;72405;-62
2023/04/21 10:21:09;;;;;;;3.80;1.70;;;;;;;22.12;36.52;99116.13;104386;1272;59957;-62
2023/04/21 10:23:45;;;;;;;3.10;1.30;;;;;;;22.04;36.60;99120.39;104292;1272;59688;-63
2023/04/21 10:26:19;;;;;;;3.10;1.30;;;;;;;21.95;36.69;99127.82;104301;1272;71975;-61
2023/04/21 10:28:53;;;;;;;4.10;1.20;;;;;;;21.88;36.79;99133.30;104346;1257;68646;-61
2023/04/21 10:31:38;;;;;;;2.50;0.90;;;;;;;21.75;36.96;99131.52;104240;1256;72172;-62
2023/04/21 10:34:12;;;;;;;4.40;1.50;;;;;;;21.61;37.14;99144.05;104275;1256;60114;-61
2023/04/21 10:36:44;;;;;;;10.20;1.90;;;;;;;21.51;37.11;99145.98;104641;1256;60648;-62
2023/04/21 10:39:28;;;;;;;7.50;1.60;;;;;;;21.43;37.22;99151.61;104456;1259;72246;-61
2023/04/21 10:42:19;;;;;;;6.90;1.70;;;;;;;21.33;37.33;99150.36;104480;1259;68923;-62
2023/04/21 10:44:57;;;;;;;4.10;1.60;;;;;;;21.23;37.44;99144.88;104273;1260;72764;-62
2023/04/21 10:47:26;;;;;;;;;;;;;;;21.11;37.56;99151.59;104213;1259;59720;-62
2023/04/21 10:49:56;;;;;;;9.40;1.30;;;;;;;21.06;37.46;99151.66;104712;1259;59820;-63
2023/04/21 10:52:34;;;;;;;8.80;1.40;;;;;;;21.08;37.58;99140.81;104507;1257;74265;-61
2023/04/21 10:55:09;;;;;;;6.00;1.40;;;;;;;21.30;37.68;99133.94;104503;1257;68638;-62
2023/04/21 10:57:40;;;;;;;9.00;1.60;;;;;;;21.58;37.57;99127.31;104175;1272;72626;-62
2023/04/21 11:00:16;;;;;;;3.70;1.30;;;;;;;21.85;37.38;99128.25;104864;1256;59777;-63
2023/04/21 11:02:52;;;;;;;5.40;1.40;;;;;;;22.08;37.18;99129.05;104522;1256;59974;-63
2023/04/21 11:05:37;;;;;;;8.00;1.50;;;;;;;22.22;36.85;99130.04;104276;1259;72120;-69
2023/04/21 11:08:13;;;;;;;7.10;1.90;;;;;;;22.28;36.80;99135.98;104270;1257;69583;-64
2023/04/21 11:10:53;;;;;;;6.00;1.60;;;;;;;22.25;36.80;99139.42;104068;1257;74064;-64
2023/04/21 11:13:24;;;;;;;3.20;1.50;;;;;;;22.18;36.90;99138.26;104578;1259;60505;-64
2023/04/21 11:16:06;;;;;;;6.90;1.90;;;;;;;22.00;37.09;99141.23;104959;1257;61038;-64
2023/04/21 11:18:39;;;;;;;10.10;2.60;;;;;;;22.04;36.84;99148.51;104743;1257;73940;-63
2023/04/21 11:21:18;;;;;;;11.10;2.10;;;;;;;21.98;36.95;99147.13;104826;1259;68440;-63
2023/04/21 11:23:59;;;;;;;8.20;1.90;;;;;;;21.86;37.00;99146.62;104620;1256;71591;-66
2023/04/21 11:26:41;;;;;;;8.20;1.90;;;;;;;21.90;37.06;99145.48;104524;1264;60881;-63
2023/04/21 11:29:10;;;;;;;5.90;1.90;;;;;;;21.96;36.83;99143.13;104399;1256;59765;-65
2023/04/21 11:31:41;;;;;;;9.20;1.60;;;;;;;22.03;36.71;99145.47;104503;1259;73415;-67
2023/04/21 11:34:10;;;;;;;10.20;2.10;;;;;;;22.12;36.46;99135.97;104495;1271;69857;-68
2023/04/21 11:36:40;;;;;;;8.40;1.80;;;;;;;22.17;36.47;99123.91;104255;1250;72694;-66
2023/04/21 11:39:10;;;;;;;7.00;1.80;;;;;;;22.28;36.44;99119.38;104763;1253;60540;-64